createdAt,value
2022-08-16T00:03:37.736Z,2.80
2022-08-16T00:08:40.212Z,2.92
2022-08-16T00:13:53.786Z,2.83
2022-08-16T00:18:56.921Z,2.70
2022-08-16T00:24:04.777Z,3.00
2022-08-16T00:29:08.574Z,2.70
2022-08-16T00:34:18.411Z,2.70
2022-08-16T00:39:20.806Z,3.10
2022-08-16T00:44:31.831Z,3.00
2022-08-16T00:49:39.373Z,2.80
2022-08-16T00:54:46.846Z,3.33
2022-08-16T00:59:58.957Z,2.65
2022-08-16T01:05:09.547Z,3.17
2022-08-16T01:10:17.071Z,3.50
2022-08-16T01:15:21.056Z,3.42
2022-08-16T01:20:30.268Z,3.30
2022-08-16T01:25:38.146Z,3.60
2022-08-16T01:30:49.787Z,3.33
2022-08-16T01:35:56.427Z,3.42
2022-08-16T01:41:03.477Z,2.90
2022-08-16T01:46:38.465Z,3.05
2022-08-16T01:51:33.450Z,3.13
2022-08-16T01:56:42.829Z,3.13
2022-08-16T02:01:49.928Z,3.20
2022-08-16T02:06:55.118Z,2.83
2022-08-16T02:12:50.455Z,3.00
2022-08-16T02:17:26.174Z,3.10
2022-08-16T02:22:36.972Z,2.83
2022-08-16T02:27:42.051Z,2.90
2022-08-16T02:32:50.505Z,2.78
2022-08-16T02:37:56.469Z,2.70
2022-08-16T02:43:05.583Z,2.65
2022-08-16T02:48:29.966Z,2.53
2022-08-16T02:53:31.566Z,2.70
2022-08-16T02:58:35.135Z,2.65
2022-08-16T03:04:39.926Z,2.70
2022-08-16T03:09:01.355Z,2.55
2022-08-16T03:14:06.380Z,2.70
2022-08-16T03:19:10.609Z,2.35
2022-08-16T03:24:28.454Z,2.67
2022-08-16T03:29:37.072Z,2.47
2022-08-16T03:34:42.027Z,2.30
2022-08-16T03:39:56.423Z,2.47
2022-08-16T03:45:10.192Z,2.20
2022-08-16T03:50:26.246Z,2.10
2022-08-16T03:55:31.353Z,1.90
2022-08-16T04:00:59.108Z,2.20
2022-08-16T04:06:02.388Z,2.08
2022-08-16T04:11:04.782Z,2.20
2022-08-16T04:16:08.809Z,2.10
2022-08-16T04:21:11.603Z,1.88
2022-08-16T04:26:16.649Z,2.08
2022-08-16T04:31:21.452Z,2.30
2022-08-16T04:36:23.629Z,1.98
2022-08-16T04:41:32.713Z,2.00
2022-08-16T04:47:02.749Z,2.17
2022-08-16T04:52:33.518Z,2.05
2022-08-16T04:57:30.582Z,2.08
2022-08-16T05:02:41.827Z,2.05
2022-08-16T05:07:58.687Z,2.00
2022-08-16T05:13:04.070Z,1.90
2022-08-16T05:18:07.644Z,2.05
2022-08-16T05:23:18.837Z,2.00
2022-08-16T05:28:31.019Z,1.90
2022-08-16T05:33:42.075Z,1.83
2022-08-16T05:38:44.255Z,1.90
2022-08-16T05:43:47.787Z,1.95
2022-08-16T05:48:54.612Z,2.13
2022-08-16T05:53:57.498Z,1.75
2022-08-16T05:59:00.209Z,1.98
2022-08-16T06:04:05.480Z,2.08
2022-08-16T06:09:19.668Z,1.98
2022-08-16T06:14:21.744Z,2.00
2022-08-16T06:19:25.258Z,2.10
2022-08-16T06:24:53.345Z,1.70
2022-08-16T06:29:50.357Z,1.90
2022-08-16T06:34:56.649Z,1.80
2022-08-16T06:40:12.723Z,2.00
2022-08-16T06:45:15.663Z,2.22
2022-08-16T06:50:22.250Z,2.20
2022-08-16T06:55:34.391Z,2.00
2022-08-16T07:00:42.985Z,1.95
2022-08-16T07:05:47.027Z,2.08
2022-08-16T07:10:49.215Z,2.03
2022-08-16T07:15:51.523Z,1.88
2022-08-16T07:21:01.722Z,2.08
2022-08-16T07:26:05.286Z,2.03
2022-08-16T07:31:13.029Z,1.77
2022-08-16T07:36:21.662Z,2.17
2022-08-16T07:41:24.466Z,2.00
2022-08-16T07:46:38.501Z,1.92
2022-08-16T07:51:43.532Z,2.20
2022-08-16T07:56:45.762Z,1.92
2022-08-16T08:01:52.898Z,1.90
2022-08-16T08:06:57.021Z,1.90
2022-08-16T08:12:00.825Z,2.22
2022-08-16T08:17:08.597Z,2.00
2022-08-16T08:22:19.159Z,2.10
2022-08-16T08:27:24.517Z,2.15
2022-08-16T08:32:57.668Z,2.00
2022-08-16T08:37:55.152Z,2.10
2022-08-16T08:43:00.650Z,2.10
2022-08-16T08:48:34.719Z,1.92
2022-08-16T08:53:40.499Z,1.90
2022-08-16T08:58:54.886Z,1.90
2022-08-16T09:04:03.623Z,2.00
2022-08-16T09:09:09.633Z,1.80
2022-08-16T09:14:24.811Z,1.70
2022-08-16T09:19:32.307Z,1.77
2022-08-16T09:24:51.977Z,1.90
2022-08-16T09:29:59.967Z,1.92
2022-08-16T09:35:03.305Z,2.03
2022-08-16T09:40:31.646Z,1.85
2022-08-16T09:45:33.849Z,2.10
2022-08-16T09:50:39.970Z,2.10
2022-08-16T09:55:49.002Z,2.08
2022-08-16T10:00:52.272Z,1.75
2022-08-16T10:05:55.896Z,2.20
2022-08-16T10:11:23.812Z,1.92
2022-08-16T10:16:26.685Z,2.00
2022-08-16T10:21:32.159Z,2.20
2022-08-16T10:27:22.007Z,2.17
2022-08-16T10:32:03.507Z,2.03
2022-08-16T10:37:06.423Z,2.00
2022-08-16T10:42:13.330Z,1.88
2022-08-16T10:47:16.553Z,2.20
2022-08-16T10:52:20.028Z,2.00
2022-08-16T10:57:24.455Z,2.10
2022-08-16T11:02:58.248Z,2.00
2022-08-16T11:07:53.569Z,1.95
2022-08-16T11:13:56.739Z,2.17
2022-08-16T11:19:03.715Z,2.10
2022-08-16T11:23:57.836Z,2.15
2022-08-16T11:29:17.780Z,2.03
2022-08-16T11:34:21.374Z,2.00
2022-08-16T11:39:23.561Z,2.10
2022-08-16T11:44:52.793Z,2.00
2022-08-16T11:49:50.159Z,2.08
2022-08-16T11:54:57.159Z,1.70
2022-08-16T12:00:04.457Z,2.05
2022-08-16T12:05:12.124Z,2.00
2022-08-16T12:10:17.229Z,2.10
2022-08-16T12:15:22.286Z,1.90
2022-08-16T12:20:29.708Z,1.83
2022-08-16T12:25:34.941Z,1.90
2022-08-16T12:30:43.208Z,1.92
2022-08-16T12:35:48.958Z,2.08
2022-08-16T12:40:55.631Z,2.00
2022-08-16T12:46:01.988Z,2.13
2022-08-16T12:51:10.880Z,1.85
2022-08-16T12:56:27.212Z,1.80
2022-08-16T13:01:33.398Z,1.80
2022-08-16T13:06:37.430Z,1.80
2022-08-16T13:11:49.087Z,1.90
2022-08-16T13:17:02.710Z,1.45
2022-08-16T13:22:07.916Z,1.60
2022-08-16T13:27:14.224Z,1.73
2022-08-16T13:32:40.483Z,1.70
2022-08-16T13:37:41.760Z,1.58
2022-08-16T13:42:44.328Z,1.83
2022-08-16T13:47:48.669Z,1.67
2022-08-16T13:52:55.297Z,1.70
2022-08-16T13:58:37.582Z,1.77
2022-08-16T14:03:22.321Z,1.60
2022-08-16T14:08:27.493Z,1.70
2022-08-16T14:13:29.657Z,1.70
2022-08-16T14:18:33.106Z,1.63
2022-08-16T14:23:35.441Z,1.52
2022-08-16T14:28:38.223Z,1.70
2022-08-16T14:33:41.700Z,1.50
2022-08-16T14:38:43.856Z,1.50
2022-08-16T14:43:46.226Z,1.50
2022-08-16T14:48:49.686Z,1.73
2022-08-16T14:53:52.723Z,1.30
2022-08-16T14:59:00.996Z,1.10
2022-08-16T15:04:05.667Z,1.45
2022-08-16T15:09:09.304Z,1.70
2022-08-16T15:14:11.661Z,1.40
2022-08-16T15:19:22.722Z,1.40
2022-08-16T15:24:25.488Z,1.20
2022-08-16T15:29:27.734Z,1.40
2022-08-16T15:34:33.035Z,1.30
2022-08-16T15:39:37.446Z,1.10
2022-08-16T15:44:53.104Z,1.10
2022-08-16T15:49:59.193Z,0.98
2022-08-16T15:55:13.331Z,1.30
2022-08-16T16:00:27.241Z,1.20
2022-08-16T16:05:35.204Z,1.20
2022-08-16T16:10:38.065Z,1.17
2022-08-16T16:15:44.673Z,1.10
2022-08-16T16:20:50.411Z,1.30
2022-08-16T16:25:55.861Z,1.60
2022-08-16T16:30:59.579Z,1.30
2022-08-16T16:36:03.930Z,1.40
2022-08-16T16:41:10.827Z,1.55
2022-08-16T16:46:40.673Z,1.30
2022-08-16T16:51:41.219Z,1.40
2022-08-16T16:56:50.361Z,1.40
2022-08-16T17:02:00.060Z,1.40
2022-08-16T17:07:16.339Z,1.35
2022-08-16T17:12:25.347Z,1.38
2022-08-16T17:17:59.693Z,1.58
2022-08-16T17:23:07.596Z,1.75
2022-08-16T17:28:58.297Z,1.40
2022-08-16T17:33:36.973Z,1.63
2022-08-16T17:38:44.598Z,1.60
2022-08-16T17:43:50.845Z,1.90
2022-08-16T17:48:52.979Z,1.73
2022-08-16T17:54:20.335Z,1.77
2022-08-16T17:59:41.277Z,2.00
2022-08-16T18:04:48.891Z,2.10
2022-08-16T18:09:54.725Z,1.90
2022-08-16T18:14:59.886Z,1.90
2022-08-16T18:20:02.229Z,2.00
2022-08-16T18:25:07.671Z,2.45
2022-08-16T20:27:41.860Z,1.90
2022-08-16T20:32:45.612Z,2.00
2022-08-16T20:37:47.859Z,1.90
2022-08-16T20:43:02.791Z,2.03
2022-08-16T20:48:05.860Z,2.15
2022-08-16T20:53:08.700Z,2.10
2022-08-16T20:58:12.628Z,1.90
2022-08-16T21:03:15.316Z,2.08
2022-08-16T21:08:50.067Z,1.80
2022-08-16T21:13:42.859Z,1.75
2022-08-16T21:18:45.254Z,1.95
2022-08-16T21:23:47.305Z,2.00
2022-08-16T21:28:50.765Z,2.05
2022-08-16T21:33:56.606Z,2.10
2022-08-16T21:38:58.701Z,2.17
2022-08-16T21:50:31.646Z,2.20
2022-08-16T21:55:33.827Z,1.90
2022-08-16T22:00:37.774Z,2.00
2022-08-16T22:05:42.566Z,1.90
2022-08-16T22:11:07.127Z,1.90
2022-08-16T22:16:08.981Z,2.08
2022-08-16T22:21:13.950Z,1.90
2022-08-16T22:26:16.068Z,1.73
2022-08-16T22:31:20.230Z,1.85
2022-08-16T22:36:24.245Z,2.10
2022-08-16T22:41:37.091Z,2.00
2022-08-16T22:46:41.438Z,2.00
2022-08-16T22:51:43.613Z,2.20
2022-08-16T22:56:45.695Z,1.90
2022-08-16T23:01:49.334Z,1.73
2022-08-16T23:06:51.592Z,2.22
2022-08-16T23:11:53.830Z,1.90
2022-08-16T23:17:02.841Z,2.00
2022-08-16T23:22:05.218Z,2.10
2022-08-16T23:27:07.436Z,2.17
2022-08-16T23:32:13.260Z,2.00
2022-08-16T23:37:15.475Z,2.00
2022-08-16T23:42:45.461Z,2.30
2022-08-16T23:47:44.459Z,1.80
2022-08-16T23:53:06.633Z,1.80
2022-08-16T23:58:14.497Z,2.00
